sensor_id;sensor_type;location;lat;lon;timestamp;temperature;humidity
6690;DHT22;3382;51.576;8.076;2023-11-18T00:00:15;22.40;97.40
6690;DHT22;3382;51.576;8.076;2023-11-18T00:02:42;22.50;97.30
6690;DHT22;3382;51.576;8.076;2023-11-18T00:05:09;22.50;97.20
6690;DHT22;3382;51.576;8.076;2023-11-18T00:07:35;22.70;97.30
6690;DHT22;3382;51.576;8.076;2023-11-18T00:10:00;22.60;97.10
6690;DHT22;3382;51.576;8.076;2023-11-18T00:12:26;22.50;97.10
6690;DHT22;3382;51.576;8.076;2023-11-18T00:14:51;22.40;97.10
6690;DHT22;3382;51.576;8.076;2023-11-18T00:17:17;22.40;97.00
6690;DHT22;3382;51.576;8.076;2023-11-18T00:19:42;22.40;96.90
6690;DHT22;3382;51.576;8.076;2023-11-18T00:22:08;22.40;97.00
6690;DHT22;3382;51.576;8.076;2023-11-18T00:24:34;22.60;97.00
6690;DHT22;3382;51.576;8.076;2023-11-18T00:27:00;22.40;96.90
6690;DHT22;3382;51.576;8.076;2023-11-18T00:29:34;22.50;96.90
6690;DHT22;3382;51.576;8.076;2023-11-18T00:32:00;22.40;96.70
6690;DHT22;3382;51.576;8.076;2023-11-18T00:34:26;22.40;96.70
6690;DHT22;3382;51.576;8.076;2023-11-18T00:36:52;22.50;96.70
6690;DHT22;3382;51.576;8.076;2023-11-18T00:39:17;22.40;96.70
6690;DHT22;3382;51.576;8.076;2023-11-18T00:41:43;22.50;96.70
6690;DHT22;3382;51.576;8.076;2023-11-18T00:44:09;22.40;96.60
6690;DHT22;3382;51.576;8.076;2023-11-18T00:46:35;22.50;96.60
6690;DHT22;3382;51.576;8.076;2023-11-18T00:49:03;22.40;96.50
6690;DHT22;3382;51.576;8.076;2023-11-18T00:51:30;22.50;96.40
6690;DHT22;3382;51.576;8.076;2023-11-18T00:53:56;22.70;96.60
6690;DHT22;3382;51.576;8.076;2023-11-18T00:56:21;22.50;96.50
6690;DHT22;3382;51.576;8.076;2023-11-18T00:58:50;22.40;96.30
6690;DHT22;3382;51.576;8.076;2023-11-18T01:01:15;22.40;96.30
6690;DHT22;3382;51.576;8.076;2023-11-18T01:03:47;22.40;96.40
6690;DHT22;3382;51.576;8.076;2023-11-18T01:06:13;22.50;96.30
6690;DHT22;3382;51.576;8.076;2023-11-18T01:08:43;22.40;96.30
6690;DHT22;3382;51.576;8.076;2023-11-18T01:11:09;22.40;96.30
6690;DHT22;3382;51.576;8.076;2023-11-18T01:13:35;22.30;96.30
6690;DHT22;3382;51.576;8.076;2023-11-18T01:16:00;22.40;96.30
6690;DHT22;3382;51.576;8.076;2023-11-18T01:18:27;22.40;96.20
6690;DHT22;3382;51.576;8.076;2023-11-18T01:20:53;22.40;96.20
6690;DHT22;3382;51.576;8.076;2023-11-18T01:23:19;22.40;96.20
6690;DHT22;3382;51.576;8.076;2023-11-18T01:25:45;22.50;96.10
6690;DHT22;3382;51.576;8.076;2023-11-18T01:28:10;22.60;96.20
6690;DHT22;3382;51.576;8.076;2023-11-18T01:30:36;22.40;96.10
6690;DHT22;3382;51.576;8.076;2023-11-18T01:33:02;22.40;96.10
6690;DHT22;3382;51.576;8.076;2023-11-18T01:35:27;22.40;96.20
6690;DHT22;3382;51.576;8.076;2023-11-18T01:37:53;22.40;96.10
6690;DHT22;3382;51.576;8.076;2023-11-18T01:40:23;22.50;96.10
6690;DHT22;3382;51.576;8.076;2023-11-18T01:42:49;22.40;96.10
6690;DHT22;3382;51.576;8.076;2023-11-18T01:45:15;22.40;96.10
6690;DHT22;3382;51.576;8.076;2023-11-18T01:47:43;22.40;96.20
6690;DHT22;3382;51.576;8.076;2023-11-18T01:50:10;22.40;96.10
6690;DHT22;3382;51.576;8.076;2023-11-18T01:52:38;22.40;96.10
6690;DHT22;3382;51.576;8.076;2023-11-18T01:55:05;22.30;96.00
6690;DHT22;3382;51.576;8.076;2023-11-18T01:57:33;22.30;96.00
6690;DHT22;3382;51.576;8.076;2023-11-18T01:59:59;22.40;96.10
6690;DHT22;3382;51.576;8.076;2023-11-18T02:02:25;22.30;96.00
6690;DHT22;3382;51.576;8.076;2023-11-18T02:04:51;22.30;96.00
6690;DHT22;3382;51.576;8.076;2023-11-18T02:07:17;22.30;96.00
6690;DHT22;3382;51.576;8.076;2023-11-18T02:09:44;22.50;96.10
6690;DHT22;3382;51.576;8.076;2023-11-18T02:12:27;22.30;96.00
6690;DHT22;3382;51.576;8.076;2023-11-18T02:14:55;22.30;95.90
6690;DHT22;3382;51.576;8.076;2023-11-18T02:17:23;22.30;95.90
6690;DHT22;3382;51.576;8.076;2023-11-18T02:19:52;22.40;96.00
6690;DHT22;3382;51.576;8.076;2023-11-18T02:22:18;22.30;95.90
6690;DHT22;3382;51.576;8.076;2023-11-18T02:24:44;22.40;95.90
6690;DHT22;3382;51.576;8.076;2023-11-18T02:27:09;22.40;95.90
6690;DHT22;3382;51.576;8.076;2023-11-18T02:29:41;22.40;95.90
6690;DHT22;3382;51.576;8.076;2023-11-18T02:32:29;22.40;95.80
6690;DHT22;3382;51.576;8.076;2023-11-18T02:35:23;22.40;95.70
6690;DHT22;3382;51.576;8.076;2023-11-18T02:37:53;22.40;95.70
6690;DHT22;3382;51.576;8.076;2023-11-18T02:40:26;22.40;95.70
6690;DHT22;3382;51.576;8.076;2023-11-18T02:42:55;22.40;95.60
6690;DHT22;3382;51.576;8.076;2023-11-18T02:45:24;22.30;95.60
6690;DHT22;3382;51.576;8.076;2023-11-18T02:47:49;22.40;95.60
6690;DHT22;3382;51.576;8.076;2023-11-18T02:50:15;22.40;95.70
6690;DHT22;3382;51.576;8.076;2023-11-18T02:52:41;22.40;95.70
6690;DHT22;3382;51.576;8.076;2023-11-18T02:55:07;22.40;95.70
6690;DHT22;3382;51.576;8.076;2023-11-18T02:57:34;22.40;95.70
6690;DHT22;3382;51.576;8.076;2023-11-18T03:00:00;22.40;95.60
6690;DHT22;3382;51.576;8.076;2023-11-18T03:02:27;22.40;95.60
6690;DHT22;3382;51.576;8.076;2023-11-18T03:04:55;22.40;95.60
6690;DHT22;3382;51.576;8.076;2023-11-18T03:07:20;22.40;95.50
6690;DHT22;3382;51.576;8.076;2023-11-18T03:09:46;22.40;95.50
6690;DHT22;3382;51.576;8.076;2023-11-18T03:12:12;22.30;95.60
6690;DHT22;3382;51.576;8.076;2023-11-18T03:14:38;22.30;95.60
6690;DHT22;3382;51.576;8.076;2023-11-18T03:17:04;22.30;95.50
6690;DHT22;3382;51.576;8.076;2023-11-18T03:19:32;22.40;95.50
6690;DHT22;3382;51.576;8.076;2023-11-18T03:22:00;22.30;95.50
6690;DHT22;3382;51.576;8.076;2023-11-18T03:24:25;22.30;95.50
6690;DHT22;3382;51.576;8.076;2023-11-18T03:26:51;22.30;95.60
6690;DHT22;3382;51.576;8.076;2023-11-18T03:29:17;22.30;95.50
6690;DHT22;3382;51.576;8.076;2023-11-18T03:31:42;22.50;95.60
6690;DHT22;3382;51.576;8.076;2023-11-18T03:34:10;22.50;95.60
6690;DHT22;3382;51.576;8.076;2023-11-18T03:36:35;22.50;95.50
6690;DHT22;3382;51.576;8.076;2023-11-18T03:39:01;22.30;95.40
6690;DHT22;3382;51.576;8.076;2023-11-18T03:41:27;22.30;95.50
6690;DHT22;3382;51.576;8.076;2023-11-18T03:43:52;22.30;95.50
6690;DHT22;3382;51.576;8.076;2023-11-18T03:46:18;22.30;95.40
6690;DHT22;3382;51.576;8.076;2023-11-18T03:48:44;22.30;95.40
6690;DHT22;3382;51.576;8.076;2023-11-18T03:51:10;22.40;95.40
6690;DHT22;3382;51.576;8.076;2023-11-18T03:53:35;22.40;95.30
6690;DHT22;3382;51.576;8.076;2023-11-18T03:56:01;22.70;95.70
6690;DHT22;3382;51.576;8.076;2023-11-18T03:58:28;22.50;95.20
6690;DHT22;3382;51.576;8.076;2023-11-18T04:00:53;22.50;95.40
6690;DHT22;3382;51.576;8.076;2023-11-18T04:03:19;22.50;94.90
6690;DHT22;3382;51.576;8.076;2023-11-18T04:05:45;22.60;95.00
6690;DHT22;3382;51.576;8.076;2023-11-18T04:08:10;22.60;95.00
6690;DHT22;3382;51.576;8.076;2023-11-18T04:10:37;22.50;95.00
6690;DHT22;3382;51.576;8.076;2023-11-18T04:13:02;22.50;94.90
6690;DHT22;3382;51.576;8.076;2023-11-18T04:15:28;22.50;94.90
6690;DHT22;3382;51.576;8.076;2023-11-18T04:17:53;22.60;95.00
6690;DHT22;3382;51.576;8.076;2023-11-18T04:20:19;22.60;94.80
6690;DHT22;3382;51.576;8.076;2023-11-18T04:22:45;22.60;94.80
6690;DHT22;3382;51.576;8.076;2023-11-18T04:25:11;22.70;94.90
6690;DHT22;3382;51.576;8.076;2023-11-18T04:27:40;22.50;94.80
6690;DHT22;3382;51.576;8.076;2023-11-18T04:30:06;22.50;94.80
6690;DHT22;3382;51.576;8.076;2023-11-18T04:32:34;22.50;94.80
6690;DHT22;3382;51.576;8.076;2023-11-18T04:35:00;22.70;94.90
6690;DHT22;3382;51.576;8.076;2023-11-18T04:37:35;22.50;94.70
6690;DHT22;3382;51.576;8.076;2023-11-18T04:40:01;22.50;94.60
6690;DHT22;3382;51.576;8.076;2023-11-18T04:42:27;22.50;94.60
6690;DHT22;3382;51.576;8.076;2023-11-18T04:44:57;22.50;94.70
6690;DHT22;3382;51.576;8.076;2023-11-18T04:47:23;22.60;94.50
6690;DHT22;3382;51.576;8.076;2023-11-18T04:49:50;22.70;94.60
6690;DHT22;3382;51.576;8.076;2023-11-18T04:52:17;22.60;94.60
6690;DHT22;3382;51.576;8.076;2023-11-18T04:54:42;22.50;94.50
6690;DHT22;3382;51.576;8.076;2023-11-18T04:57:08;22.50;94.50
6690;DHT22;3382;51.576;8.076;2023-11-18T04:59:34;22.50;94.40
6690;DHT22;3382;51.576;8.076;2023-11-18T05:02:01;22.80;94.80
6690;DHT22;3382;51.576;8.076;2023-11-18T05:04:28;22.60;94.60
6690;DHT22;3382;51.576;8.076;2023-11-18T05:06:53;22.50;94.70
6690;DHT22;3382;51.576;8.076;2023-11-18T05:09:19;22.50;94.50
6690;DHT22;3382;51.576;8.076;2023-11-18T05:11:44;22.40;94.60
6690;DHT22;3382;51.576;8.076;2023-11-18T05:14:10;22.50;94.70
6690;DHT22;3382;51.576;8.076;2023-11-18T05:16:37;22.50;94.50
6690;DHT22;3382;51.576;8.076;2023-11-18T05:19:02;22.50;94.70
6690;DHT22;3382;51.576;8.076;2023-11-18T05:21:29;22.50;94.50
6690;DHT22;3382;51.576;8.076;2023-11-18T05:23:54;22.50;94.60
6690;DHT22;3382;51.576;8.076;2023-11-18T05:26:20;22.50;94.60
6690;DHT22;3382;51.576;8.076;2023-11-18T05:28:45;22.50;94.50
6690;DHT22;3382;51.576;8.076;2023-11-18T05:31:11;22.50;94.40
6690;DHT22;3382;51.576;8.076;2023-11-18T05:33:37;22.40;94.30
6690;DHT22;3382;51.576;8.076;2023-11-18T05:36:03;22.50;94.20
6690;DHT22;3382;51.576;8.076;2023-11-18T05:38:30;22.40;94.20
6690;DHT22;3382;51.576;8.076;2023-11-18T05:41:00;22.40;94.20
6690;DHT22;3382;51.576;8.076;2023-11-18T05:43:30;22.30;94.10
6690;DHT22;3382;51.576;8.076;2023-11-18T05:46:05;22.30;94.20
6690;DHT22;3382;51.576;8.076;2023-11-18T05:48:43;22.30;94.20
6690;DHT22;3382;51.576;8.076;2023-11-18T05:51:09;22.30;94.10
6690;DHT22;3382;51.576;8.076;2023-11-18T05:53:39;22.50;94.20
6690;DHT22;3382;51.576;8.076;2023-11-18T05:56:05;22.40;94.20
6690;DHT22;3382;51.576;8.076;2023-11-18T05:58:31;22.20;94.00
6690;DHT22;3382;51.576;8.076;2023-11-18T06:00:58;22.30;94.00
6690;DHT22;3382;51.576;8.076;2023-11-18T06:03:23;22.30;93.80
6690;DHT22;3382;51.576;8.076;2023-11-18T06:05:49;22.60;93.80
6690;DHT22;3382;51.576;8.076;2023-11-18T06:08:16;22.40;93.70
6690;DHT22;3382;51.576;8.076;2023-11-18T06:10:42;22.50;93.60
6690;DHT22;3382;51.576;8.076;2023-11-18T06:13:10;22.30;93.50
6690;DHT22;3382;51.576;8.076;2023-11-18T06:15:38;22.40;93.60
6690;DHT22;3382;51.576;8.076;2023-11-18T06:18:04;22.40;93.50
6690;DHT22;3382;51.576;8.076;2023-11-18T06:20:30;22.40;93.90
6690;DHT22;3382;51.576;8.076;2023-11-18T06:22:56;22.40;93.40
6690;DHT22;3382;51.576;8.076;2023-11-18T06:25:22;22.40;93.40
6690;DHT22;3382;51.576;8.076;2023-11-18T06:27:51;22.40;93.40
6690;DHT22;3382;51.576;8.076;2023-11-18T06:30:18;22.40;93.40
6690;DHT22;3382;51.576;8.076;2023-11-18T06:32:45;22.50;93.40
6690;DHT22;3382;51.576;8.076;2023-11-18T06:35:12;22.40;93.30
6690;DHT22;3382;51.576;8.076;2023-11-18T06:37:40;22.40;93.80
6690;DHT22;3382;51.576;8.076;2023-11-18T06:40:06;22.60;93.50
6690;DHT22;3382;51.576;8.076;2023-11-18T06:42:42;22.50;93.40
6690;DHT22;3382;51.576;8.076;2023-11-18T06:45:08;22.40;93.30
6690;DHT22;3382;51.576;8.076;2023-11-18T06:47:35;22.40;93.30
6690;DHT22;3382;51.576;8.076;2023-11-18T06:50:02;22.40;93.40
6690;DHT22;3382;51.576;8.076;2023-11-18T06:52:27;22.40;93.50
6690;DHT22;3382;51.576;8.076;2023-11-18T06:54:53;22.40;93.40
6690;DHT22;3382;51.576;8.076;2023-11-18T06:57:20;22.40;93.40
6690;DHT22;3382;51.576;8.076;2023-11-18T06:59:47;22.30;93.40
6690;DHT22;3382;51.576;8.076;2023-11-18T07:02:12;22.30;93.50
6690;DHT22;3382;51.576;8.076;2023-11-18T07:04:38;22.30;93.40
6690;DHT22;3382;51.576;8.076;2023-11-18T07:07:04;22.60;93.60
6690;DHT22;3382;51.576;8.076;2023-11-18T07:09:30;22.50;93.50
6690;DHT22;3382;51.576;8.076;2023-11-18T07:12:01;22.40;93.30
6690;DHT22;3382;51.576;8.076;2023-11-18T07:14:29;22.40;93.40
6690;DHT22;3382;51.576;8.076;2023-11-18T07:16:54;22.60;93.50
6690;DHT22;3382;51.576;8.076;2023-11-18T07:19:20;22.50;93.40
6690;DHT22;3382;51.576;8.076;2023-11-18T07:21:49;22.50;93.30
6690;DHT22;3382;51.576;8.076;2023-11-18T07:24:15;22.50;96.40
6690;DHT22;3382;51.576;8.076;2023-11-18T07:26:42;22.60;97.90
6690;DHT22;3382;51.576;8.076;2023-11-18T07:29:09;22.70;98.30
6690;DHT22;3382;51.576;8.076;2023-11-18T07:31:34;22.60;97.30
6690;DHT22;3382;51.576;8.076;2023-11-18T07:34:04;22.70;97.90
6690;DHT22;3382;51.576;8.076;2023-11-18T07:36:31;22.80;98.60
6690;DHT22;3382;51.576;8.076;2023-11-18T07:38:57;23.00;99.60
6690;DHT22;3382;51.576;8.076;2023-11-18T07:41:24;23.20;99.90
6690;DHT22;3382;51.576;8.076;2023-11-18T07:43:50;23.30;99.90
6690;DHT22;3382;51.576;8.076;2023-11-18T07:46:16;23.20;99.90
6690;DHT22;3382;51.576;8.076;2023-11-18T07:48:42;23.20;99.30
6690;DHT22;3382;51.576;8.076;2023-11-18T07:51:07;23.00;98.30
6690;DHT22;3382;51.576;8.076;2023-11-18T07:53:33;22.70;98.00
6690;DHT22;3382;51.576;8.076;2023-11-18T07:55:59;22.80;98.30
6690;DHT22;3382;51.576;8.076;2023-11-18T07:58:27;22.70;97.50
6690;DHT22;3382;51.576;8.076;2023-11-18T08:00:53;22.70;97.10
6690;DHT22;3382;51.576;8.076;2023-11-18T08:03:20;22.80;96.60
6690;DHT22;3382;51.576;8.076;2023-11-18T08:05:46;23.00;96.10
6690;DHT22;3382;51.576;8.076;2023-11-18T08:08:12;22.80;95.90
6690;DHT22;3382;51.576;8.076;2023-11-18T08:10:39;22.80;95.40
6690;DHT22;3382;51.576;8.076;2023-11-18T08:13:05;22.70;95.00
6690;DHT22;3382;51.576;8.076;2023-11-18T08:15:33;22.60;94.60
6690;DHT22;3382;51.576;8.076;2023-11-18T08:17:59;22.60;94.40
6690;DHT22;3382;51.576;8.076;2023-11-18T08:20:25;22.60;94.10
6690;DHT22;3382;51.576;8.076;2023-11-18T08:22:51;22.60;93.70
6690;DHT22;3382;51.576;8.076;2023-11-18T08:25:17;22.60;93.40
6690;DHT22;3382;51.576;8.076;2023-11-18T08:27:43;22.60;93.30
6690;DHT22;3382;51.576;8.076;2023-11-18T08:30:11;22.60;93.00
6690;DHT22;3382;51.576;8.076;2023-11-18T08:32:38;22.50;92.80
6690;DHT22;3382;51.576;8.076;2023-11-18T08:35:07;22.60;92.70
6690;DHT22;3382;51.576;8.076;2023-11-18T08:37:37;22.50;92.60
6690;DHT22;3382;51.576;8.076;2023-11-18T08:40:06;22.60;92.30
6690;DHT22;3382;51.576;8.076;2023-11-18T08:42:33;22.60;92.20
6690;DHT22;3382;51.576;8.076;2023-11-18T08:44:59;22.60;92.00
6690;DHT22;3382;51.576;8.076;2023-11-18T08:47:28;22.60;91.80
6690;DHT22;3382;51.576;8.076;2023-11-18T08:49:54;22.50;91.80
6690;DHT22;3382;51.576;8.076;2023-11-18T08:52:20;22.50;91.60
6690;DHT22;3382;51.576;8.076;2023-11-18T08:54:46;22.60;91.50
6690;DHT22;3382;51.576;8.076;2023-11-18T08:57:30;22.50;91.30
6690;DHT22;3382;51.576;8.076;2023-11-18T09:00:14;22.50;91.30
6690;DHT22;3382;51.576;8.076;2023-11-18T09:03:01;22.50;91.00
6690;DHT22;3382;51.576;8.076;2023-11-18T09:05:27;22.50;91.20
6690;DHT22;3382;51.576;8.076;2023-11-18T09:07:57;22.80;91.20
6690;DHT22;3382;51.576;8.076;2023-11-18T09:10:23;22.70;91.60
6690;DHT22;3382;51.576;8.076;2023-11-18T09:12:49;23.00;91.10
6690;DHT22;3382;51.576;8.076;2023-11-18T09:15:15;23.20;91.20
6690;DHT22;3382;51.576;8.076;2023-11-18T09:17:48;23.40;91.10
6690;DHT22;3382;51.576;8.076;2023-11-18T09:20:14;23.70;91.20
6690;DHT22;3382;51.576;8.076;2023-11-18T09:22:43;24.00;91.20
6690;DHT22;3382;51.576;8.076;2023-11-18T09:25:09;24.20;91.20
6690;DHT22;3382;51.576;8.076;2023-11-18T09:27:36;24.00;91.20
6690;DHT22;3382;51.576;8.076;2023-11-18T09:30:02;24.00;90.80
6690;DHT22;3382;51.576;8.076;2023-11-18T09:32:30;24.00;91.40
6690;DHT22;3382;51.576;8.076;2023-11-18T09:34:59;24.10;91.80
6690;DHT22;3382;51.576;8.076;2023-11-18T09:37:31;24.30;92.00
6690;DHT22;3382;51.576;8.076;2023-11-18T09:39:56;24.00;90.40
6690;DHT22;3382;51.576;8.076;2023-11-18T09:42:24;23.60;88.70
6690;DHT22;3382;51.576;8.076;2023-11-18T09:44:49;23.70;90.90
6690;DHT22;3382;51.576;8.076;2023-11-18T09:47:17;23.70;91.00
6690;DHT22;3382;51.576;8.076;2023-11-18T09:49:52;23.70;91.30
6690;DHT22;3382;51.576;8.076;2023-11-18T09:52:21;23.80;91.20
6690;DHT22;3382;51.576;8.076;2023-11-18T09:55:00;23.80;91.60
6690;DHT22;3382;51.576;8.076;2023-11-18T09:57:32;23.80;91.50
6690;DHT22;3382;51.576;8.076;2023-11-18T10:00:06;23.80;91.90
6690;DHT22;3382;51.576;8.076;2023-11-18T10:02:45;23.80;92.00
6690;DHT22;3382;51.576;8.076;2023-11-18T10:05:12;24.00;92.10
6690;DHT22;3382;51.576;8.076;2023-11-18T10:07:41;24.00;92.30
6690;DHT22;3382;51.576;8.076;2023-11-18T10:10:11;24.00;92.40
6690;DHT22;3382;51.576;8.076;2023-11-18T10:12:47;23.90;91.90
6690;DHT22;3382;51.576;8.076;2023-11-18T10:15:23;24.00;92.10
6690;DHT22;3382;51.576;8.076;2023-11-18T10:17:50;23.70;90.60
6690;DHT22;3382;51.576;8.076;2023-11-18T10:20:47;23.20;89.90
6690;DHT22;3382;51.576;8.076;2023-11-18T10:23:16;23.00;91.20
6690;DHT22;3382;51.576;8.076;2023-11-18T10:25:46;23.10;91.60
6690;DHT22;3382;51.576;8.076;2023-11-18T10:28:33;23.40;92.00
6690;DHT22;3382;51.576;8.076;2023-11-18T10:31:04;23.50;91.60
6690;DHT22;3382;51.576;8.076;2023-11-18T10:33:31;23.50;91.40
6690;DHT22;3382;51.576;8.076;2023-11-18T10:35:58;23.40;92.00
6690;DHT22;3382;51.576;8.076;2023-11-18T10:38:24;23.60;92.00
6690;DHT22;3382;51.576;8.076;2023-11-18T10:40:55;23.70;92.20
6690;DHT22;3382;51.576;8.076;2023-11-18T10:43:22;23.70;92.30
6690;DHT22;3382;51.576;8.076;2023-11-18T10:45:52;23.90;92.40
6690;DHT22;3382;51.576;8.076;2023-11-18T10:48:18;23.80;92.30
6690;DHT22;3382;51.576;8.076;2023-11-18T10:50:47;23.80;92.50
6690;DHT22;3382;51.576;8.076;2023-11-18T10:53:16;23.70;92.40
6690;DHT22;3382;51.576;8.076;2023-11-18T10:55:42;23.80;92.40
6690;DHT22;3382;51.576;8.076;2023-11-18T10:58:09;23.70;92.50
6690;DHT22;3382;51.576;8.076;2023-11-18T11:00:48;23.60;92.40
6690;DHT22;3382;51.576;8.076;2023-11-18T11:03:15;23.60;92.40
6690;DHT22;3382;51.576;8.076;2023-11-18T11:05:41;23.60;92.60
6690;DHT22;3382;51.576;8.076;2023-11-18T11:08:09;23.50;92.60
6690;DHT22;3382;51.576;8.076;2023-11-18T11:10:40;23.50;92.50
6690;DHT22;3382;51.576;8.076;2023-11-18T11:13:07;23.50;92.50
6690;DHT22;3382;51.576;8.076;2023-11-18T11:15:40;23.60;92.50
6690;DHT22;3382;51.576;8.076;2023-11-18T11:18:08;23.50;92.40
6690;DHT22;3382;51.576;8.076;2023-11-18T11:20:42;23.50;92.40
6690;DHT22;3382;51.576;8.076;2023-11-18T11:23:47;23.60;92.50
6690;DHT22;3382;51.576;8.076;2023-11-18T11:26:38;23.50;92.60
6690;DHT22;3382;51.576;8.076;2023-11-18T11:29:26;23.60;92.50
6690;DHT22;3382;51.576;8.076;2023-11-18T11:32:13;23.60;92.40
6690;DHT22;3382;51.576;8.076;2023-11-18T11:34:53;23.60;92.50
6690;DHT22;3382;51.576;8.076;2023-11-18T11:37:19;23.60;92.30
6690;DHT22;3382;51.576;8.076;2023-11-18T11:39:50;23.60;92.30
6690;DHT22;3382;51.576;8.076;2023-11-18T11:42:20;23.60;92.20
6690;DHT22;3382;51.576;8.076;2023-11-18T11:44:47;23.50;92.50
6690;DHT22;3382;51.576;8.076;2023-11-18T11:47:13;23.60;92.40
6690;DHT22;3382;51.576;8.076;2023-11-18T11:49:49;23.60;92.50
6690;DHT22;3382;51.576;8.076;2023-11-18T11:52:26;23.80;92.40
6690;DHT22;3382;51.576;8.076;2023-11-18T11:55:05;24.00;92.30
6690;DHT22;3382;51.576;8.076;2023-11-18T11:57:38;23.90;92.30
6690;DHT22;3382;51.576;8.076;2023-11-18T12:00:04;23.90;92.30
6690;DHT22;3382;51.576;8.076;2023-11-18T12:02:48;24.00;92.50
6690;DHT22;3382;51.576;8.076;2023-11-18T12:05:18;24.10;92.20
6690;DHT22;3382;51.576;8.076;2023-11-18T12:07:44;24.00;92.20
6690;DHT22;3382;51.576;8.076;2023-11-18T12:10:11;23.90;92.40
6690;DHT22;3382;51.576;8.076;2023-11-18T12:12:45;23.80;92.40
6690;DHT22;3382;51.576;8.076;2023-11-18T12:15:12;23.70;92.40
6690;DHT22;3382;51.576;8.076;2023-11-18T12:20:40;23.70;92.40
6690;DHT22;3382;51.576;8.076;2023-11-18T12:23:07;23.70;92.40
6690;DHT22;3382;51.576;8.076;2023-11-18T12:25:40;23.80;92.50
6690;DHT22;3382;51.576;8.076;2023-11-18T12:28:16;23.70;92.50
6690;DHT22;3382;51.576;8.076;2023-11-18T12:30:43;23.70;92.40
6690;DHT22;3382;51.576;8.076;2023-11-18T12:33:20;23.70;92.30
6690;DHT22;3382;51.576;8.076;2023-11-18T12:41:37;23.60;92.50
6690;DHT22;3382;51.576;8.076;2023-11-18T12:47:13;23.60;92.40
6690;DHT22;3382;51.576;8.076;2023-11-18T12:49:47;23.70;92.30
6690;DHT22;3382;51.576;8.076;2023-11-18T12:52:20;23.70;92.50
6690;DHT22;3382;51.576;8.076;2023-11-18T12:54:47;23.50;92.20
6690;DHT22;3382;51.576;8.076;2023-11-18T12:57:19;23.70;92.40
6690;DHT22;3382;51.576;8.076;2023-11-18T12:59:48;23.50;92.50
6690;DHT22;3382;51.576;8.076;2023-11-18T13:02:13;23.40;92.50
6690;DHT22;3382;51.576;8.076;2023-11-18T13:04:45;23.40;93.00
6690;DHT22;3382;51.576;8.076;2023-11-18T13:07:13;23.70;92.30
6690;DHT22;3382;51.576;8.076;2023-11-18T13:09:40;23.60;92.30
6690;DHT22;3382;51.576;8.076;2023-11-18T13:12:08;23.60;92.40
6690;DHT22;3382;51.576;8.076;2023-11-18T13:14:35;23.60;92.40
6690;DHT22;3382;51.576;8.076;2023-11-18T13:17:15;23.60;92.30
6690;DHT22;3382;51.576;8.076;2023-11-18T13:19:41;23.60;92.40
6690;DHT22;3382;51.576;8.076;2023-11-18T13:22:11;23.60;92.60
6690;DHT22;3382;51.576;8.076;2023-11-18T13:24:38;23.60;92.50
6690;DHT22;3382;51.576;8.076;2023-11-18T13:27:15;23.40;92.60
6690;DHT22;3382;51.576;8.076;2023-11-18T13:29:44;23.60;92.40
6690;DHT22;3382;51.576;8.076;2023-11-18T13:32:18;23.60;92.30
6690;DHT22;3382;51.576;8.076;2023-11-18T13:34:48;23.70;92.30
6690;DHT22;3382;51.576;8.076;2023-11-18T13:37:14;23.60;92.30
6690;DHT22;3382;51.576;8.076;2023-11-18T13:39:45;23.90;92.10
6690;DHT22;3382;51.576;8.076;2023-11-18T13:42:21;23.70;92.10
6690;DHT22;3382;51.576;8.076;2023-11-18T13:44:47;23.80;92.40
6690;DHT22;3382;51.576;8.076;2023-11-18T13:47:16;23.80;92.20
6690;DHT22;3382;51.576;8.076;2023-11-18T13:49:42;23.70;92.30
6690;DHT22;3382;51.576;8.076;2023-11-18T13:52:08;23.90;92.30
6690;DHT22;3382;51.576;8.076;2023-11-18T13:54:37;23.80;92.50
6690;DHT22;3382;51.576;8.076;2023-11-18T13:57:04;23.60;92.80
6690;DHT22;3382;51.576;8.076;2023-11-18T13:59:31;23.60;93.00
6690;DHT22;3382;51.576;8.076;2023-11-18T14:01:58;23.40;93.00
6690;DHT22;3382;51.576;8.076;2023-11-18T14:04:30;23.60;93.20
6690;DHT22;3382;51.576;8.076;2023-11-18T14:07:00;23.70;93.10
6690;DHT22;3382;51.576;8.076;2023-11-18T14:09:26;23.70;93.50
6690;DHT22;3382;51.576;8.076;2023-11-18T14:11:52;23.60;92.80
6690;DHT22;3382;51.576;8.076;2023-11-18T14:14:20;23.60;93.00
6690;DHT22;3382;51.576;8.076;2023-11-18T14:16:46;23.70;93.00
6690;DHT22;3382;51.576;8.076;2023-11-18T14:19:12;23.60;92.80
6690;DHT22;3382;51.576;8.076;2023-11-18T14:21:39;23.60;92.90
6690;DHT22;3382;51.576;8.076;2023-11-18T14:24:07;23.80;92.90
6690;DHT22;3382;51.576;8.076;2023-11-18T14:26:33;23.60;92.90
6690;DHT22;3382;51.576;8.076;2023-11-18T14:28:59;23.60;92.90
6690;DHT22;3382;51.576;8.076;2023-11-18T14:31:25;23.60;93.00
6690;DHT22;3382;51.576;8.076;2023-11-18T14:33:51;23.80;92.80
6690;DHT22;3382;51.576;8.076;2023-11-18T14:36:17;23.90;92.80
6690;DHT22;3382;51.576;8.076;2023-11-18T14:38:44;23.90;93.20
6690;DHT22;3382;51.576;8.076;2023-11-18T14:41:10;23.70;93.00
6690;DHT22;3382;51.576;8.076;2023-11-18T14:43:36;23.80;92.90
6690;DHT22;3382;51.576;8.076;2023-11-18T14:46:01;23.60;92.90
6690;DHT22;3382;51.576;8.076;2023-11-18T14:48:29;23.70;93.10
6690;DHT22;3382;51.576;8.076;2023-11-18T14:50:54;23.80;92.80
6690;DHT22;3382;51.576;8.076;2023-11-18T14:53:22;24.00;92.80
6690;DHT22;3382;51.576;8.076;2023-11-18T14:55:48;23.70;92.80
6690;DHT22;3382;51.576;8.076;2023-11-18T14:58:13;23.70;93.00
6690;DHT22;3382;51.576;8.076;2023-11-18T15:00:39;23.70;93.10
6690;DHT22;3382;51.576;8.076;2023-11-18T15:03:05;23.70;92.90
6690;DHT22;3382;51.576;8.076;2023-11-18T15:05:31;23.80;92.90
6690;DHT22;3382;51.576;8.076;2023-11-18T15:07:57;23.70;92.90
6690;DHT22;3382;51.576;8.076;2023-11-18T15:10:27;23.70;92.80
6690;DHT22;3382;51.576;8.076;2023-11-18T15:12:54;23.60;92.90
6690;DHT22;3382;51.576;8.076;2023-11-18T15:15:28;23.80;92.90
6690;DHT22;3382;51.576;8.076;2023-11-18T15:18:04;23.90;92.80
6690;DHT22;3382;51.576;8.076;2023-11-18T15:20:40;23.60;92.90
6690;DHT22;3382;51.576;8.076;2023-11-18T15:23:08;23.40;92.90
6690;DHT22;3382;51.576;8.076;2023-11-18T15:25:34;23.70;93.00
6690;DHT22;3382;51.576;8.076;2023-11-18T15:27:59;23.50;92.80
6690;DHT22;3382;51.576;8.076;2023-11-18T15:30:26;23.30;93.10
6690;DHT22;3382;51.576;8.076;2023-11-18T15:32:52;23.40;93.00
6690;DHT22;3382;51.576;8.076;2023-11-18T15:35:18;23.60;92.90
6690;DHT22;3382;51.576;8.076;2023-11-18T15:37:46;23.60;92.70
6690;DHT22;3382;51.576;8.076;2023-11-18T15:40:16;23.80;92.80
6690;DHT22;3382;51.576;8.076;2023-11-18T15:42:45;23.40;92.80
6690;DHT22;3382;51.576;8.076;2023-11-18T15:45:17;23.30;93.10
6690;DHT22;3382;51.576;8.076;2023-11-18T15:47:43;23.30;93.00
6690;DHT22;3382;51.576;8.076;2023-11-18T15:50:10;23.50;92.80
6690;DHT22;3382;51.576;8.076;2023-11-18T15:52:45;23.30;92.90
6690;DHT22;3382;51.576;8.076;2023-11-18T15:55:11;23.40;92.90
6690;DHT22;3382;51.576;8.076;2023-11-18T15:57:43;23.20;92.90
6690;DHT22;3382;51.576;8.076;2023-11-18T16:00:10;23.20;93.10
6690;DHT22;3382;51.576;8.076;2023-11-18T16:02:53;23.30;92.90
6690;DHT22;3382;51.576;8.076;2023-11-18T16:05:21;23.40;92.70
6690;DHT22;3382;51.576;8.076;2023-11-18T16:07:52;23.30;93.20
6690;DHT22;3382;51.576;8.076;2023-11-18T16:10:18;23.30;92.90
6690;DHT22;3382;51.576;8.076;2023-11-18T16:12:50;23.10;93.00
6690;DHT22;3382;51.576;8.076;2023-11-18T16:15:20;23.30;92.80
6690;DHT22;3382;51.576;8.076;2023-11-18T16:17:51;23.30;92.90
6690;DHT22;3382;51.576;8.076;2023-11-18T16:20:20;23.00;93.00